sensor_id;sensor_type;location;lat;lon;timestamp;P1;durP1;ratioP1;P2;durP2;ratioP2
3795;SDS011;1913;50.660;7.834;2024-01-30T00:00:13;26.43;;;14.97;;
3795;SDS011;1913;50.660;7.834;2024-01-30T00:02:39;24.93;;;15.23;;
3795;SDS011;1913;50.660;7.834;2024-01-30T00:05:04;25.73;;;16.40;;
3795;SDS011;1913;50.660;7.834;2024-01-30T00:07:29;21.50;;;14.37;;
3795;SDS011;1913;50.660;7.834;2024-01-30T00:09:55;28.43;;;15.07;;
3795;SDS011;1913;50.660;7.834;2024-01-30T00:12:20;25.00;;;15.57;;
3795;SDS011;1913;50.660;7.834;2024-01-30T00:14:45;27.87;;;15.13;;
3795;SDS011;1913;50.660;7.834;2024-01-30T00:17:10;22.93;;;15.67;;
3795;SDS011;1913;50.660;7.834;2024-01-30T00:19:36;28.07;;;15.20;;
3795;SDS011;1913;50.660;7.834;2024-01-30T00:22:01;23.40;;;15.70;;
3795;SDS011;1913;50.660;7.834;2024-01-30T00:24:26;26.53;;;15.83;;
3795;SDS011;1913;50.660;7.834;2024-01-30T00:26:51;26.93;;;16.33;;
3795;SDS011;1913;50.660;7.834;2024-01-30T00:29:17;28.40;;;15.30;;
3795;SDS011;1913;50.660;7.834;2024-01-30T00:31:44;29.20;;;15.63;;
3795;SDS011;1913;50.660;7.834;2024-01-30T00:34:09;29.27;;;15.60;;
3795;SDS011;1913;50.660;7.834;2024-01-30T00:36:35;25.20;;;15.20;;
3795;SDS011;1913;50.660;7.834;2024-01-30T00:39:00;25.27;;;15.70;;
3795;SDS011;1913;50.660;7.834;2024-01-30T00:41:25;25.17;;;15.30;;
3795;SDS011;1913;50.660;7.834;2024-01-30T00:43:51;27.80;;;14.60;;
3795;SDS011;1913;50.660;7.834;2024-01-30T00:46:17;24.90;;;13.87;;
3795;SDS011;1913;50.660;7.834;2024-01-30T00:48:42;25.20;;;14.03;;
3795;SDS011;1913;50.660;7.834;2024-01-30T00:51:07;21.23;;;13.63;;
3795;SDS011;1913;50.660;7.834;2024-01-30T00:53:32;25.73;;;13.83;;
3795;SDS011;1913;50.660;7.834;2024-01-30T00:55:58;23.57;;;13.83;;
3795;SDS011;1913;50.660;7.834;2024-01-30T00:58:23;23.13;;;13.70;;
3795;SDS011;1913;50.660;7.834;2024-01-30T01:00:48;26.17;;;13.37;;
3795;SDS011;1913;50.660;7.834;2024-01-30T01:03:13;22.70;;;14.80;;
3795;SDS011;1913;50.660;7.834;2024-01-30T01:05:39;21.13;;;13.87;;
3795;SDS011;1913;50.660;7.834;2024-01-30T01:08:04;23.13;;;14.53;;
3795;SDS011;1913;50.660;7.834;2024-01-30T01:10:29;23.03;;;15.00;;
3795;SDS011;1913;50.660;7.834;2024-01-30T01:12:54;30.23;;;15.70;;
3795;SDS011;1913;50.660;7.834;2024-01-30T01:15:19;32.57;;;16.40;;
3795;SDS011;1913;50.660;7.834;2024-01-30T01:17:45;25.97;;;15.10;;
3795;SDS011;1913;50.660;7.834;2024-01-30T01:20:10;28.03;;;15.90;;
3795;SDS011;1913;50.660;7.834;2024-01-30T01:22:36;31.70;;;16.43;;
3795;SDS011;1913;50.660;7.834;2024-01-30T01:25:03;27.40;;;16.00;;
3795;SDS011;1913;50.660;7.834;2024-01-30T01:27:28;27.90;;;16.30;;
3795;SDS011;1913;50.660;7.834;2024-01-30T01:29:53;25.60;;;15.50;;
3795;SDS011;1913;50.660;7.834;2024-01-30T01:32:19;24.03;;;14.23;;
3795;SDS011;1913;50.660;7.834;2024-01-30T01:34:44;24.67;;;14.17;;
3795;SDS011;1913;50.660;7.834;2024-01-30T01:37:09;29.23;;;15.50;;
3795;SDS011;1913;50.660;7.834;2024-01-30T01:39:35;24.67;;;15.13;;
3795;SDS011;1913;50.660;7.834;2024-01-30T01:42:00;23.30;;;14.80;;
3795;SDS011;1913;50.660;7.834;2024-01-30T01:44:25;27.77;;;13.90;;
3795;SDS011;1913;50.660;7.834;2024-01-30T01:46:51;24.13;;;14.03;;
3795;SDS011;1913;50.660;7.834;2024-01-30T01:49:16;23.20;;;13.50;;
3795;SDS011;1913;50.660;7.834;2024-01-30T01:51:42;22.70;;;11.50;;
3795;SDS011;1913;50.660;7.834;2024-01-30T01:54:09;23.83;;;12.90;;
3795;SDS011;1913;50.660;7.834;2024-01-30T01:56:35;21.77;;;12.97;;
3795;SDS011;1913;50.660;7.834;2024-01-30T01:59:04;24.10;;;12.13;;
3795;SDS011;1913;50.660;7.834;2024-01-30T02:01:30;21.87;;;12.57;;
3795;SDS011;1913;50.660;7.834;2024-01-30T02:03:56;17.23;;;10.40;;
3795;SDS011;1913;50.660;7.834;2024-01-30T02:06:24;21.57;;;11.23;;
3795;SDS011;1913;50.660;7.834;2024-01-30T02:08:49;18.20;;;11.23;;
3795;SDS011;1913;50.660;7.834;2024-01-30T02:11:14;14.97;;;10.17;;
3795;SDS011;1913;50.660;7.834;2024-01-30T02:13:41;18.03;;;10.80;;
3795;SDS011;1913;50.660;7.834;2024-01-30T02:16:06;16.87;;;11.07;;
3795;SDS011;1913;50.660;7.834;2024-01-30T02:18:32;24.20;;;10.10;;
3795;SDS011;1913;50.660;7.834;2024-01-30T02:20:58;14.70;;;10.00;;
3795;SDS011;1913;50.660;7.834;2024-01-30T02:23:24;18.23;;;10.23;;
3795;SDS011;1913;50.660;7.834;2024-01-30T02:25:50;16.20;;;10.30;;
3795;SDS011;1913;50.660;7.834;2024-01-30T02:28:17;15.60;;;9.97;;
3795;SDS011;1913;50.660;7.834;2024-01-30T02:30:43;17.90;;;9.83;;
3795;SDS011;1913;50.660;7.834;2024-01-30T02:33:08;16.93;;;10.10;;
3795;SDS011;1913;50.660;7.834;2024-01-30T02:35:33;15.70;;;9.40;;
3795;SDS011;1913;50.660;7.834;2024-01-30T02:37:59;14.40;;;9.50;;
3795;SDS011;1913;50.660;7.834;2024-01-30T02:40:24;17.83;;;10.20;;
3795;SDS011;1913;50.660;7.834;2024-01-30T02:42:49;15.20;;;9.70;;
3795;SDS011;1913;50.660;7.834;2024-01-30T02:45:14;14.50;;;9.20;;
3795;SDS011;1913;50.660;7.834;2024-01-30T02:47:40;21.93;;;10.20;;
3795;SDS011;1913;50.660;7.834;2024-01-30T02:50:05;15.13;;;9.40;;
3795;SDS011;1913;50.660;7.834;2024-01-30T02:52:30;14.43;;;9.23;;
3795;SDS011;1913;50.660;7.834;2024-01-30T02:54:56;18.80;;;9.13;;
3795;SDS011;1913;50.660;7.834;2024-01-30T02:57:21;15.93;;;9.93;;
3795;SDS011;1913;50.660;7.834;2024-01-30T02:59:46;15.23;;;8.97;;
3795;SDS011;1913;50.660;7.834;2024-01-30T03:02:11;16.57;;;9.00;;
3795;SDS011;1913;50.660;7.834;2024-01-30T03:04:36;14.70;;;9.37;;
3795;SDS011;1913;50.660;7.834;2024-01-30T03:07:01;15.37;;;9.27;;
3795;SDS011;1913;50.660;7.834;2024-01-30T03:09:27;13.83;;;9.60;;
3795;SDS011;1913;50.660;7.834;2024-01-30T03:11:52;18.70;;;9.50;;
3795;SDS011;1913;50.660;7.834;2024-01-30T03:14:17;14.13;;;9.70;;
3795;SDS011;1913;50.660;7.834;2024-01-30T03:16:43;16.67;;;9.70;;
3795;SDS011;1913;50.660;7.834;2024-01-30T03:19:08;17.43;;;8.90;;
3795;SDS011;1913;50.660;7.834;2024-01-30T03:21:34;15.60;;;9.17;;
3795;SDS011;1913;50.660;7.834;2024-01-30T03:23:59;18.03;;;9.70;;
3795;SDS011;1913;50.660;7.834;2024-01-30T03:26:25;14.63;;;8.93;;
3795;SDS011;1913;50.660;7.834;2024-01-30T03:28:50;13.60;;;8.50;;
3795;SDS011;1913;50.660;7.834;2024-01-30T03:31:15;24.63;;;9.63;;
3795;SDS011;1913;50.660;7.834;2024-01-30T03:33:40;17.37;;;9.90;;
3795;SDS011;1913;50.660;7.834;2024-01-30T03:36:06;16.73;;;8.60;;
3795;SDS011;1913;50.660;7.834;2024-01-30T03:38:31;15.93;;;9.13;;
3795;SDS011;1913;50.660;7.834;2024-01-30T03:40:58;13.00;;;7.77;;
3795;SDS011;1913;50.660;7.834;2024-01-30T03:43:23;18.23;;;9.90;;
3795;SDS011;1913;50.660;7.834;2024-01-30T03:45:48;13.90;;;8.67;;
3795;SDS011;1913;50.660;7.834;2024-01-30T03:51:17;17.00;;;8.30;;
3795;SDS011;1913;50.660;7.834;2024-01-30T03:53:43;15.60;;;9.57;;
3795;SDS011;1913;50.660;7.834;2024-01-30T03:56:08;11.80;;;8.13;;
3795;SDS011;1913;50.660;7.834;2024-01-30T03:58:33;17.20;;;10.30;;
3795;SDS011;1913;50.660;7.834;2024-01-30T04:00:58;14.30;;;9.63;;
3795;SDS011;1913;50.660;7.834;2024-01-30T04:03:24;12.60;;;8.53;;
3795;SDS011;1913;50.660;7.834;2024-01-30T04:05:49;19.50;;;9.90;;
3795;SDS011;1913;50.660;7.834;2024-01-30T04:08:14;13.23;;;8.23;;
3795;SDS011;1913;50.660;7.834;2024-01-30T04:10:40;13.37;;;8.57;;
3795;SDS011;1913;50.660;7.834;2024-01-30T04:13:05;14.40;;;9.20;;
3795;SDS011;1913;50.660;7.834;2024-01-30T04:15:30;13.30;;;8.43;;
3795;SDS011;1913;50.660;7.834;2024-01-30T04:17:59;16.27;;;8.67;;
3795;SDS011;1913;50.660;7.834;2024-01-30T04:20:27;12.40;;;7.90;;
3795;SDS011;1913;50.660;7.834;2024-01-30T04:22:52;14.93;;;7.97;;
3795;SDS011;1913;50.660;7.834;2024-01-30T04:25:17;17.83;;;7.87;;
3795;SDS011;1913;50.660;7.834;2024-01-30T04:27:45;9.90;;;6.70;;
3795;SDS011;1913;50.660;7.834;2024-01-30T04:30:10;14.37;;;7.63;;
3795;SDS011;1913;50.660;7.834;2024-01-30T04:32:36;12.70;;;7.07;;
3795;SDS011;1913;50.660;7.834;2024-01-30T04:35:01;14.33;;;7.90;;
3795;SDS011;1913;50.660;7.834;2024-01-30T04:37:27;15.20;;;8.30;;
3795;SDS011;1913;50.660;7.834;2024-01-30T04:39:52;14.73;;;7.30;;
3795;SDS011;1913;50.660;7.834;2024-01-30T04:42:17;12.53;;;7.43;;
3795;SDS011;1913;50.660;7.834;2024-01-30T04:44:43;13.97;;;7.50;;
3795;SDS011;1913;50.660;7.834;2024-01-30T04:47:09;15.13;;;7.70;;
3795;SDS011;1913;50.660;7.834;2024-01-30T04:49:36;18.67;;;8.07;;
3795;SDS011;1913;50.660;7.834;2024-01-30T04:52:02;11.50;;;7.37;;
3795;SDS011;1913;50.660;7.834;2024-01-30T04:54:27;12.27;;;7.27;;
3795;SDS011;1913;50.660;7.834;2024-01-30T04:56:52;11.20;;;6.57;;
3795;SDS011;1913;50.660;7.834;2024-01-30T04:59:17;12.13;;;7.47;;
3795;SDS011;1913;50.660;7.834;2024-01-30T05:01:43;12.90;;;7.87;;
3795;SDS011;1913;50.660;7.834;2024-01-30T05:04:08;12.67;;;6.90;;
3795;SDS011;1913;50.660;7.834;2024-01-30T05:06:34;13.67;;;7.50;;
3795;SDS011;1913;50.660;7.834;2024-01-30T05:09:02;10.13;;;6.87;;
3795;SDS011;1913;50.660;7.834;2024-01-30T05:11:28;11.57;;;7.50;;
3795;SDS011;1913;50.660;7.834;2024-01-30T05:13:54;15.70;;;8.57;;
3795;SDS011;1913;50.660;7.834;2024-01-30T05:16:19;10.23;;;7.00;;
3795;SDS011;1913;50.660;7.834;2024-01-30T05:18:44;33.77;;;19.50;;
3795;SDS011;1913;50.660;7.834;2024-01-30T05:21:10;20.33;;;10.70;;
3795;SDS011;1913;50.660;7.834;2024-01-30T05:23:35;18.00;;;8.30;;
3795;SDS011;1913;50.660;7.834;2024-01-30T05:26:00;13.87;;;8.47;;
3795;SDS011;1913;50.660;7.834;2024-01-30T05:28:26;16.70;;;7.90;;
3795;SDS011;1913;50.660;7.834;2024-01-30T05:30:51;16.00;;;8.70;;
3795;SDS011;1913;50.660;7.834;2024-01-30T05:33:16;12.73;;;7.60;;
3795;SDS011;1913;50.660;7.834;2024-01-30T05:35:41;12.80;;;7.20;;
3795;SDS011;1913;50.660;7.834;2024-01-30T05:38:06;16.13;;;7.37;;
3795;SDS011;1913;50.660;7.834;2024-01-30T05:40:32;10.77;;;7.00;;
3795;SDS011;1913;50.660;7.834;2024-01-30T05:42:57;12.83;;;7.77;;
3795;SDS011;1913;50.660;7.834;2024-01-30T05:45:27;9.80;;;6.67;;
3795;SDS011;1913;50.660;7.834;2024-01-30T05:47:52;14.87;;;7.43;;
3795;SDS011;1913;50.660;7.834;2024-01-30T05:50:18;12.27;;;7.70;;
3795;SDS011;1913;50.660;7.834;2024-01-30T05:52:43;11.03;;;6.67;;
3795;SDS011;1913;50.660;7.834;2024-01-30T05:55:08;13.27;;;7.70;;
3795;SDS011;1913;50.660;7.834;2024-01-30T05:57:34;18.33;;;8.60;;
3795;SDS011;1913;50.660;7.834;2024-01-30T06:00:00;12.77;;;7.87;;
3795;SDS011;1913;50.660;7.834;2024-01-30T06:02:25;13.50;;;7.50;;
3795;SDS011;1913;50.660;7.834;2024-01-30T06:04:50;12.40;;;7.90;;
3795;SDS011;1913;50.660;7.834;2024-01-30T06:07:15;11.80;;;6.90;;
3795;SDS011;1913;50.660;7.834;2024-01-30T06:09:42;12.13;;;7.07;;
3795;SDS011;1913;50.660;7.834;2024-01-30T06:12:07;12.67;;;7.47;;
3795;SDS011;1913;50.660;7.834;2024-01-30T06:14:32;11.57;;;7.70;;
3795;SDS011;1913;50.660;7.834;2024-01-30T06:16:58;12.60;;;8.07;;
3795;SDS011;1913;50.660;7.834;2024-01-30T06:19:24;13.27;;;7.37;;
3795;SDS011;1913;50.660;7.834;2024-01-30T06:21:49;11.97;;;7.47;;
3795;SDS011;1913;50.660;7.834;2024-01-30T06:24:14;10.23;;;7.30;;
3795;SDS011;1913;50.660;7.834;2024-01-30T06:26:39;15.60;;;7.63;;
3795;SDS011;1913;50.660;7.834;2024-01-30T06:29:04;12.00;;;7.03;;
3795;SDS011;1913;50.660;7.834;2024-01-30T06:31:30;12.47;;;7.83;;
3795;SDS011;1913;50.660;7.834;2024-01-30T06:33:55;10.97;;;7.00;;
3795;SDS011;1913;50.660;7.834;2024-01-30T06:36:20;12.37;;;7.50;;
3795;SDS011;1913;50.660;7.834;2024-01-30T06:38:45;18.33;;;8.30;;
3795;SDS011;1913;50.660;7.834;2024-01-30T06:41:10;18.10;;;8.40;;
3795;SDS011;1913;50.660;7.834;2024-01-30T06:43:35;16.40;;;8.90;;
3795;SDS011;1913;50.660;7.834;2024-01-30T06:46:01;16.43;;;8.00;;
3795;SDS011;1913;50.660;7.834;2024-01-30T06:48:26;23.53;;;8.50;;
3795;SDS011;1913;50.660;7.834;2024-01-30T06:50:54;11.63;;;8.00;;
3795;SDS011;1913;50.660;7.834;2024-01-30T06:53:19;15.53;;;8.10;;
3795;SDS011;1913;50.660;7.834;2024-01-30T06:55:45;12.07;;;7.97;;
3795;SDS011;1913;50.660;7.834;2024-01-30T06:58:10;18.23;;;8.03;;
3795;SDS011;1913;50.660;7.834;2024-01-30T07:00:35;11.10;;;7.67;;
3795;SDS011;1913;50.660;7.834;2024-01-30T07:03:01;14.13;;;8.27;;
3795;SDS011;1913;50.660;7.834;2024-01-30T07:05:26;13.83;;;7.53;;
3795;SDS011;1913;50.660;7.834;2024-01-30T07:07:51;12.40;;;7.47;;
3795;SDS011;1913;50.660;7.834;2024-01-30T07:10:16;14.97;;;7.93;;
3795;SDS011;1913;50.660;7.834;2024-01-30T07:12:41;11.93;;;8.00;;
3795;SDS011;1913;50.660;7.834;2024-01-30T07:15:07;12.50;;;7.43;;
3795;SDS011;1913;50.660;7.834;2024-01-30T07:17:35;13.10;;;8.20;;
3795;SDS011;1913;50.660;7.834;2024-01-30T07:20:00;11.40;;;8.13;;
3795;SDS011;1913;50.660;7.834;2024-01-30T07:22:26;15.13;;;8.23;;
3795;SDS011;1913;50.660;7.834;2024-01-30T07:24:51;14.13;;;8.33;;
3795;SDS011;1913;50.660;7.834;2024-01-30T07:27:17;13.60;;;8.00;;
3795;SDS011;1913;50.660;7.834;2024-01-30T07:29:42;19.13;;;8.70;;
3795;SDS011;1913;50.660;7.834;2024-01-30T07:32:08;10.83;;;7.60;;
3795;SDS011;1913;50.660;7.834;2024-01-30T07:34:33;17.67;;;8.40;;
3795;SDS011;1913;50.660;7.834;2024-01-30T07:36:58;13.10;;;8.37;;
3795;SDS011;1913;50.660;7.834;2024-01-30T07:39:23;10.80;;;7.33;;
3795;SDS011;1913;50.660;7.834;2024-01-30T07:41:48;13.20;;;7.50;;
3795;SDS011;1913;50.660;7.834;2024-01-30T07:44:13;14.40;;;8.30;;
3795;SDS011;1913;50.660;7.834;2024-01-30T07:46:39;14.73;;;8.07;;
3795;SDS011;1913;50.660;7.834;2024-01-30T07:49:04;15.00;;;7.43;;
3795;SDS011;1913;50.660;7.834;2024-01-30T07:51:29;14.87;;;7.63;;
3795;SDS011;1913;50.660;7.834;2024-01-30T07:53:56;12.07;;;7.40;;
3795;SDS011;1913;50.660;7.834;2024-01-30T07:56:22;11.80;;;7.03;;
3795;SDS011;1913;50.660;7.834;2024-01-30T07:58:47;12.40;;;7.63;;
3795;SDS011;1913;50.660;7.834;2024-01-30T08:01:12;12.17;;;7.57;;
3795;SDS011;1913;50.660;7.834;2024-01-30T08:03:37;13.50;;;7.87;;
3795;SDS011;1913;50.660;7.834;2024-01-30T08:06:05;10.63;;;6.57;;
3795;SDS011;1913;50.660;7.834;2024-01-30T08:08:31;10.20;;;7.90;;
3795;SDS011;1913;50.660;7.834;2024-01-30T08:10:56;10.20;;;6.70;;
3795;SDS011;1913;50.660;7.834;2024-01-30T08:13:22;12.03;;;7.40;;
3795;SDS011;1913;50.660;7.834;2024-01-30T08:15:47;11.07;;;7.40;;
3795;SDS011;1913;50.660;7.834;2024-01-30T08:18:12;10.70;;;6.90;;
3795;SDS011;1913;50.660;7.834;2024-01-30T08:20:37;10.70;;;7.07;;
3795;SDS011;1913;50.660;7.834;2024-01-30T08:23:02;13.77;;;6.70;;
3795;SDS011;1913;50.660;7.834;2024-01-30T08:25:28;10.80;;;6.50;;
3795;SDS011;1913;50.660;7.834;2024-01-30T08:27:53;10.33;;;7.30;;
3795;SDS011;1913;50.660;7.834;2024-01-30T08:30:18;10.63;;;6.30;;
3795;SDS011;1913;50.660;7.834;2024-01-30T08:32:43;16.63;;;7.40;;
3795;SDS011;1913;50.660;7.834;2024-01-30T08:35:09;9.10;;;6.07;;
3795;SDS011;1913;50.660;7.834;2024-01-30T08:37:34;12.60;;;6.50;;
3795;SDS011;1913;50.660;7.834;2024-01-30T08:39:59;13.43;;;7.17;;
3795;SDS011;1913;50.660;7.834;2024-01-30T08:42:24;10.80;;;6.60;;
3795;SDS011;1913;50.660;7.834;2024-01-30T08:44:50;10.77;;;6.50;;
3795;SDS011;1913;50.660;7.834;2024-01-30T08:47:19;8.37;;;6.00;;
3795;SDS011;1913;50.660;7.834;2024-01-30T08:49:44;10.70;;;6.13;;
3795;SDS011;1913;50.660;7.834;2024-01-30T08:52:10;9.57;;;6.60;;
3795;SDS011;1913;50.660;7.834;2024-01-30T08:54:35;8.63;;;6.60;;
3795;SDS011;1913;50.660;7.834;2024-01-30T08:57:01;10.67;;;5.97;;
3795;SDS011;1913;50.660;7.834;2024-01-30T08:59:29;10.23;;;6.20;;
3795;SDS011;1913;50.660;7.834;2024-01-30T09:01:55;11.23;;;6.17;;
3795;SDS011;1913;50.660;7.834;2024-01-30T09:04:20;9.23;;;6.20;;
3795;SDS011;1913;50.660;7.834;2024-01-30T09:06:45;10.67;;;6.03;;
3795;SDS011;1913;50.660;7.834;2024-01-30T09:09:11;7.20;;;5.47;;
3795;SDS011;1913;50.660;7.834;2024-01-30T09:11:36;10.13;;;5.50;;
3795;SDS011;1913;50.660;7.834;2024-01-30T09:14:01;15.63;;;7.13;;
3795;SDS011;1913;50.660;7.834;2024-01-30T09:16:26;13.13;;;6.80;;
3795;SDS011;1913;50.660;7.834;2024-01-30T09:18:52;10.13;;;6.63;;
3795;SDS011;1913;50.660;7.834;2024-01-30T09:21:17;8.67;;;5.93;;
3795;SDS011;1913;50.660;7.834;2024-01-30T09:23:42;12.90;;;6.47;;
3795;SDS011;1913;50.660;7.834;2024-01-30T09:26:07;10.00;;;6.80;;
3795;SDS011;1913;50.660;7.834;2024-01-30T09:28:32;9.73;;;6.00;;
3795;SDS011;1913;50.660;7.834;2024-01-30T09:30:58;8.07;;;5.83;;
3795;SDS011;1913;50.660;7.834;2024-01-30T09:33:23;10.50;;;6.73;;
3795;SDS011;1913;50.660;7.834;2024-01-30T09:35:48;18.13;;;6.80;;
3795;SDS011;1913;50.660;7.834;2024-01-30T09:38:13;12.43;;;6.43;;
3795;SDS011;1913;50.660;7.834;2024-01-30T09:40:38;13.70;;;7.23;;
3795;SDS011;1913;50.660;7.834;2024-01-30T09:43:04;18.03;;;6.07;;
3795;SDS011;1913;50.660;7.834;2024-01-30T09:45:29;11.80;;;7.17;;
3795;SDS011;1913;50.660;7.834;2024-01-30T09:47:54;8.23;;;5.53;;
3795;SDS011;1913;50.660;7.834;2024-01-30T09:50:20;9.73;;;6.57;;
3795;SDS011;1913;50.660;7.834;2024-01-30T09:52:46;11.57;;;5.53;;
3795;SDS011;1913;50.660;7.834;2024-01-30T09:55:11;6.63;;;5.70;;
3795;SDS011;1913;50.660;7.834;2024-01-30T09:57:36;11.03;;;5.80;;
3795;SDS011;1913;50.660;7.834;2024-01-30T10:00:02;10.23;;;5.80;;
3795;SDS011;1913;50.660;7.834;2024-01-30T10:02:28;11.00;;;5.80;;
3795;SDS011;1913;50.660;7.834;2024-01-30T10:04:54;9.53;;;5.90;;
3795;SDS011;1913;50.660;7.834;2024-01-30T10:07:19;9.70;;;6.00;;
3795;SDS011;1913;50.660;7.834;2024-01-30T10:09:45;11.60;;;5.93;;
3795;SDS011;1913;50.660;7.834;2024-01-30T10:12:10;8.20;;;5.90;;
3795;SDS011;1913;50.660;7.834;2024-01-30T10:14:39;10.70;;;6.60;;
3795;SDS011;1913;50.660;7.834;2024-01-30T10:17:04;8.23;;;6.00;;
3795;SDS011;1913;50.660;7.834;2024-01-30T10:19:30;10.23;;;6.37;;
3795;SDS011;1913;50.660;7.834;2024-01-30T10:21:56;11.30;;;6.30;;
3795;SDS011;1913;50.660;7.834;2024-01-30T10:24:24;6.63;;;5.33;;
3795;SDS011;1913;50.660;7.834;2024-01-30T10:26:50;10.90;;;5.97;;
3795;SDS011;1913;50.660;7.834;2024-01-30T10:29:15;11.57;;;6.90;;
3795;SDS011;1913;50.660;7.834;2024-01-30T10:31:40;8.00;;;5.53;;
3795;SDS011;1913;50.660;7.834;2024-01-30T10:34:05;8.70;;;6.30;;
3795;SDS011;1913;50.660;7.834;2024-01-30T10:36:34;8.93;;;6.03;;
3795;SDS011;1913;50.660;7.834;2024-01-30T10:39:02;8.30;;;5.70;;
3795;SDS011;1913;50.660;7.834;2024-01-30T10:41:31;7.67;;;5.73;;
3795;SDS011;1913;50.660;7.834;2024-01-30T10:44:19;8.87;;;5.43;;
3795;SDS011;1913;50.660;7.834;2024-01-30T10:46:43;14.90;;;6.50;;
3795;SDS011;1913;50.660;7.834;2024-01-30T10:49:10;10.10;;;5.83;;
3795;SDS011;1913;50.660;7.834;2024-01-30T10:51:37;8.07;;;6.50;;
3795;SDS011;1913;50.660;7.834;2024-01-30T10:54:03;11.17;;;6.60;;
3795;SDS011;1913;50.660;7.834;2024-01-30T10:56:28;8.83;;;5.87;;
3795;SDS011;1913;50.660;7.834;2024-01-30T10:58:54;13.57;;;6.50;;
3795;SDS011;1913;50.660;7.834;2024-01-30T11:01:20;8.50;;;5.63;;
3795;SDS011;1913;50.660;7.834;2024-01-30T11:03:48;11.93;;;6.57;;
3795;SDS011;1913;50.660;7.834;2024-01-30T11:06:14;8.40;;;5.90;;
3795;SDS011;1913;50.660;7.834;2024-01-30T11:08:43;9.30;;;5.80;;
3795;SDS011;1913;50.660;7.834;2024-01-30T11:11:08;12.50;;;6.47;;
3795;SDS011;1913;50.660;7.834;2024-01-30T11:13:34;11.03;;;6.50;;
3795;SDS011;1913;50.660;7.834;2024-01-30T11:16:02;10.37;;;6.00;;
3795;SDS011;1913;50.660;7.834;2024-01-30T11:18:32;9.50;;;6.80;;
3795;SDS011;1913;50.660;7.834;2024-01-30T11:20:58;9.60;;;6.30;;
3795;SDS011;1913;50.660;7.834;2024-01-30T11:23:23;12.57;;;7.50;;
3795;SDS011;1913;50.660;7.834;2024-01-30T11:25:52;10.57;;;6.20;;
3795;SDS011;1913;50.660;7.834;2024-01-30T11:28:17;9.13;;;6.50;;
3795;SDS011;1913;50.660;7.834;2024-01-30T11:30:43;9.50;;;6.10;;
3795;SDS011;1913;50.660;7.834;2024-01-30T11:33:09;13.43;;;5.90;;
3795;SDS011;1913;50.660;7.834;2024-01-30T11:35:37;12.13;;;6.27;;
3795;SDS011;1913;50.660;7.834;2024-01-30T11:38:03;13.43;;;6.37;;
3795;SDS011;1913;50.660;7.834;2024-01-30T11:40:29;8.67;;;5.63;;
3795;SDS011;1913;50.660;7.834;2024-01-30T11:42:55;13.77;;;6.67;;
3795;SDS011;1913;50.660;7.834;2024-01-30T11:45:21;15.00;;;6.50;;
3795;SDS011;1913;50.660;7.834;2024-01-30T11:47:46;9.90;;;5.30;;
3795;SDS011;1913;50.660;7.834;2024-01-30T11:50:11;10.23;;;6.30;;
3795;SDS011;1913;50.660;7.834;2024-01-30T11:52:40;13.33;;;6.00;;
3795;SDS011;1913;50.660;7.834;2024-01-30T11:55:06;10.93;;;5.90;;
3795;SDS011;1913;50.660;7.834;2024-01-30T11:57:33;8.90;;;5.47;;
3795;SDS011;1913;50.660;7.834;2024-01-30T12:00:00;10.60;;;5.53;;
3795;SDS011;1913;50.660;7.834;2024-01-30T12:02:25;8.93;;;5.50;;
3795;SDS011;1913;50.660;7.834;2024-01-30T12:04:50;11.80;;;5.40;;
3795;SDS011;1913;50.660;7.834;2024-01-30T12:07:16;8.53;;;5.80;;
3795;SDS011;1913;50.660;7.834;2024-01-30T12:09:41;11.40;;;5.73;;
3795;SDS011;1913;50.660;7.834;2024-01-30T12:12:07;10.00;;;5.23;;
3795;SDS011;1913;50.660;7.834;2024-01-30T12:14:36;7.13;;;5.00;;
3795;SDS011;1913;50.660;7.834;2024-01-30T12:17:02;12.57;;;5.90;;
3795;SDS011;1913;50.660;7.834;2024-01-30T12:19:27;8.90;;;5.13;;
3795;SDS011;1913;50.660;7.834;2024-01-30T12:21:54;9.37;;;5.27;;
3795;SDS011;1913;50.660;7.834;2024-01-30T12:24:20;10.60;;;5.30;;
3795;SDS011;1913;50.660;7.834;2024-01-30T12:26:45;9.20;;;5.80;;
3795;SDS011;1913;50.660;7.834;2024-01-30T12:29:10;9.60;;;5.60;;
3795;SDS011;1913;50.660;7.834;2024-01-30T12:31:35;9.30;;;5.57;;
3795;SDS011;1913;50.660;7.834;2024-01-30T12:34:01;10.80;;;4.97;;
3795;SDS011;1913;50.660;7.834;2024-01-30T12:36:26;14.37;;;5.93;;
3795;SDS011;1913;50.660;7.834;2024-01-30T12:38:54;11.27;;;6.07;;
3795;SDS011;1913;50.660;7.834;2024-01-30T12:41:20;10.73;;;5.10;;
3795;SDS011;1913;50.660;7.834;2024-01-30T12:43:46;11.10;;;5.00;;
3795;SDS011;1913;50.660;7.834;2024-01-30T12:46:12;10.90;;;5.17;;
3795;SDS011;1913;50.660;7.834;2024-01-30T12:48:37;11.03;;;5.43;;
3795;SDS011;1913;50.660;7.834;2024-01-30T12:51:03;13.27;;;6.07;;
3795;SDS011;1913;50.660;7.834;2024-01-30T12:53:28;8.43;;;5.50;;
3795;SDS011;1913;50.660;7.834;2024-01-30T12:55:53;9.20;;;6.17;;
3795;SDS011;1913;50.660;7.834;2024-01-30T12:58:19;9.63;;;5.47;;
3795;SDS011;1913;50.660;7.834;2024-01-30T13:00:44;6.90;;;5.17;;
3795;SDS011;1913;50.660;7.834;2024-01-30T13:03:10;14.13;;;6.30;;
3795;SDS011;1913;50.660;7.834;2024-01-30T13:05:35;15.10;;;5.70;;
3795;SDS011;1913;50.660;7.834;2024-01-30T13:08:00;8.40;;;5.50;;
3795;SDS011;1913;50.660;7.834;2024-01-30T13:10:26;10.60;;;6.37;;
3795;SDS011;1913;50.660;7.834;2024-01-30T13:12:51;8.33;;;5.87;;
3795;SDS011;1913;50.660;7.834;2024-01-30T13:15:16;10.63;;;6.00;;
3795;SDS011;1913;50.660;7.834;2024-01-30T13:17:41;7.40;;;5.93;;
3795;SDS011;1913;50.660;7.834;2024-01-30T13:20:07;7.70;;;5.33;;
3795;SDS011;1913;50.660;7.834;2024-01-30T13:22:33;12.07;;;6.53;;
3795;SDS011;1913;50.660;7.834;2024-01-30T13:24:58;13.87;;;6.20;;
3795;SDS011;1913;50.660;7.834;2024-01-30T13:27:23;10.07;;;5.90;;
3795;SDS011;1913;50.660;7.834;2024-01-30T13:29:49;10.27;;;6.00;;
3795;SDS011;1913;50.660;7.834;2024-01-30T13:32:14;11.47;;;6.20;;
3795;SDS011;1913;50.660;7.834;2024-01-30T13:34:39;12.20;;;6.60;;
3795;SDS011;1913;50.660;7.834;2024-01-30T13:37:05;14.37;;;7.30;;
3795;SDS011;1913;50.660;7.834;2024-01-30T13:39:30;10.00;;;6.67;;
3795;SDS011;1913;50.660;7.834;2024-01-30T13:41:55;10.73;;;6.40;;
3795;SDS011;1913;50.660;7.834;2024-01-30T13:44:21;12.60;;;6.80;;
3795;SDS011;1913;50.660;7.834;2024-01-30T13:46:46;11.00;;;6.37;;
3795;SDS011;1913;50.660;7.834;2024-01-30T13:49:11;11.63;;;6.33;;
3795;SDS011;1913;50.660;7.834;2024-01-30T13:51:36;10.30;;;6.30;;
3795;SDS011;1913;50.660;7.834;2024-01-30T13:54:02;9.23;;;6.27;;
3795;SDS011;1913;50.660;7.834;2024-01-30T13:56:27;10.40;;;5.97;;
3795;SDS011;1913;50.660;7.834;2024-01-30T13:58:52;13.80;;;6.87;;
3795;SDS011;1913;50.660;7.834;2024-01-30T14:01:18;12.97;;;6.47;;
3795;SDS011;1913;50.660;7.834;2024-01-30T14:03:43;13.17;;;6.70;;
3795;SDS011;1913;50.660;7.834;2024-01-30T14:06:08;10.03;;;6.60;;
3795;SDS011;1913;50.660;7.834;2024-01-30T14:08:33;10.00;;;5.90;;
3795;SDS011;1913;50.660;7.834;2024-01-30T14:10:59;11.93;;;6.30;;
3795;SDS011;1913;50.660;7.834;2024-01-30T14:13:24;9.20;;;6.80;;
3795;SDS011;1913;50.660;7.834;2024-01-30T14:15:50;8.13;;;6.10;;
3795;SDS011;1913;50.660;7.834;2024-01-30T14:18:15;15.57;;;6.83;;
3795;SDS011;1913;50.660;7.834;2024-01-30T14:20:41;13.20;;;7.07;;
3795;SDS011;1913;50.660;7.834;2024-01-30T14:23:06;10.83;;;6.73;;
3795;SDS011;1913;50.660;7.834;2024-01-30T14:25:31;10.00;;;6.33;;
3795;SDS011;1913;50.660;7.834;2024-01-30T14:27:57;10.30;;;6.73;;
3795;SDS011;1913;50.660;7.834;2024-01-30T14:30:22;15.43;;;7.23;;
3795;SDS011;1913;50.660;7.834;2024-01-30T14:32:47;13.13;;;6.50;;
3795;SDS011;1913;50.660;7.834;2024-01-30T14:35:13;13.50;;;6.57;;
3795;SDS011;1913;50.660;7.834;2024-01-30T14:37:39;11.60;;;6.20;;
3795;SDS011;1913;50.660;7.834;2024-01-30T14:40:04;12.10;;;6.10;;
3795;SDS011;1913;50.660;7.834;2024-01-30T14:42:32;10.13;;;6.63;;
3795;SDS011;1913;50.660;7.834;2024-01-30T14:44:57;11.43;;;6.33;;
3795;SDS011;1913;50.660;7.834;2024-01-30T14:47:23;7.60;;;6.40;;
3795;SDS011;1913;50.660;7.834;2024-01-30T14:49:48;15.17;;;6.50;;
3795;SDS011;1913;50.660;7.834;2024-01-30T14:52:14;7.97;;;6.07;;